createdAt,value
2023-04-23T00:00:17.113Z,8.25
2023-04-23T00:02:47.260Z,8.21
2023-04-23T00:05:16.929Z,8.17
2023-04-23T00:07:47.326Z,8.16
2023-04-23T00:10:16.636Z,8.15
2023-04-23T00:12:48.644Z,8.16
2023-04-23T00:15:20.726Z,8.13
2023-04-23T00:17:50.131Z,8.15
2023-04-23T00:20:18.954Z,8.12
2023-04-23T00:22:48.984Z,8.08
2023-04-23T00:25:17.725Z,8.01
2023-04-23T00:27:49.422Z,7.97
2023-04-23T00:30:19.052Z,7.93
2023-04-23T00:32:48.022Z,7.85
2023-04-23T00:35:16.648Z,7.79
2023-04-23T00:37:45.547Z,7.77
2023-04-23T00:40:16.232Z,7.74
2023-04-23T00:42:47.444Z,7.71
2023-04-23T00:45:16.190Z,7.69
2023-04-23T00:47:45.199Z,7.65
2023-04-23T00:50:15.111Z,7.68
2023-04-23T00:52:43.642Z,7.69
2023-04-23T00:55:13.162Z,7.68
2023-04-23T00:57:43.725Z,7.64
2023-04-23T01:00:14.494Z,7.59
2023-04-23T01:02:44.848Z,7.54
2023-04-23T01:05:15.625Z,7.50
2023-04-23T01:07:45.302Z,7.50
2023-04-23T01:10:18.387Z,7.49
2023-04-23T01:12:50.141Z,7.49
2023-04-23T01:15:18.812Z,7.53
2023-04-23T01:17:47.464Z,7.56
2023-04-23T01:20:17.764Z,7.55
2023-04-23T01:22:48.575Z,7.53
2023-04-23T01:25:17.134Z,7.51
2023-04-23T01:27:46.326Z,7.52
2023-04-23T01:30:15.412Z,7.52
2023-04-23T01:32:45.200Z,7.54
2023-04-23T01:35:14.505Z,7.56
2023-04-23T01:37:45.896Z,7.53
2023-04-23T01:40:16.151Z,7.49
2023-04-23T01:42:44.835Z,7.43
2023-04-23T01:45:14.037Z,7.39
2023-04-23T01:47:43.070Z,7.33
2023-04-23T01:50:12.099Z,7.27
2023-04-23T01:52:40.567Z,7.26
2023-04-23T01:55:09.852Z,7.27
2023-04-23T01:57:39.843Z,7.31
2023-04-23T02:00:11.502Z,7.31
2023-04-23T02:02:45.694Z,7.30
2023-04-23T02:05:16.804Z,7.29
2023-04-23T02:07:46.515Z,7.27
2023-04-23T02:10:16.198Z,7.25
2023-04-23T02:12:47.267Z,7.19
2023-04-23T02:15:17.731Z,7.14
2023-04-23T02:17:46.286Z,7.06
2023-04-23T02:20:14.966Z,7.03
2023-04-23T02:22:44.141Z,7.01
2023-04-23T02:25:12.554Z,6.97
2023-04-23T02:27:41.344Z,6.96
2023-04-23T02:30:13.133Z,6.95
2023-04-23T02:32:43.205Z,6.94
2023-04-23T02:35:14.331Z,6.92
2023-04-23T02:37:42.807Z,6.87
2023-04-23T02:40:12.158Z,6.83
2023-04-23T02:42:43.248Z,6.78
2023-04-23T02:45:14.202Z,6.76
2023-04-23T02:47:42.614Z,6.74
2023-04-23T02:50:11.844Z,6.73
2023-04-23T02:52:40.523Z,6.70
2023-04-23T02:55:11.164Z,6.68
2023-04-23T02:57:40.083Z,6.64
2023-04-23T03:00:10.036Z,6.60
2023-04-23T03:02:44.183Z,6.59
2023-04-23T03:05:13.106Z,6.58
2023-04-23T03:07:43.506Z,6.54
2023-04-23T03:10:12.628Z,6.50
2023-04-23T03:12:41.483Z,6.47
2023-04-23T03:15:11.773Z,6.43
2023-04-23T03:17:40.951Z,6.34
2023-04-23T03:20:12.715Z,6.30
2023-04-23T03:22:41.996Z,6.26
2023-04-23T03:25:11.292Z,6.25
2023-04-23T03:27:41.489Z,6.27
2023-04-23T03:30:11.832Z,6.29
2023-04-23T03:32:40.594Z,6.26
2023-04-23T03:35:11.295Z,6.28
2023-04-23T03:37:43.738Z,6.21
2023-04-23T03:40:13.897Z,6.23
2023-04-23T03:42:45.448Z,6.19
2023-04-23T03:45:17.011Z,6.20
2023-04-23T03:47:46.492Z,6.20
2023-04-23T03:50:17.678Z,6.19
2023-04-23T03:52:52.382Z,6.15
2023-04-23T03:55:40.946Z,6.10
2023-04-23T03:58:10.945Z,6.09
2023-04-23T04:00:45.742Z,6.09
2023-04-23T04:03:14.904Z,6.08
2023-04-23T04:05:45.189Z,6.14
2023-04-23T04:08:13.842Z,6.19
2023-04-23T04:10:42.898Z,6.23
2023-04-23T04:13:11.699Z,6.25
2023-04-23T04:15:40.710Z,6.29
2023-04-23T04:18:10.203Z,6.33
2023-04-23T04:20:38.703Z,6.37
2023-04-23T04:23:08.632Z,6.43
2023-04-23T04:25:40.331Z,6.54
2023-04-23T04:28:09.636Z,6.60
2023-04-23T04:30:42.672Z,6.70
2023-04-23T04:33:11.582Z,6.77
2023-04-23T04:35:40.233Z,6.82
2023-04-23T04:38:10.266Z,6.87
2023-04-23T04:40:40.147Z,6.95
2023-04-23T04:43:08.652Z,7.03
2023-04-23T04:45:37.415Z,7.12
2023-04-23T04:48:06.422Z,7.20
2023-04-23T04:50:35.048Z,7.31
2023-04-23T04:53:04.026Z,7.44
2023-04-23T04:55:34.495Z,7.53
2023-04-23T04:58:03.385Z,7.61
2023-04-23T05:00:32.796Z,7.70
2023-04-23T05:03:01.931Z,7.77
2023-04-23T05:05:30.649Z,7.87
2023-04-23T05:08:02.411Z,7.98
2023-04-23T05:10:31.339Z,8.09
2023-04-23T05:13:01.893Z,8.25
2023-04-23T05:15:30.764Z,8.39
2023-04-23T05:18:00.902Z,8.55
2023-04-23T05:20:29.431Z,8.71
2023-04-23T05:22:59.991Z,8.87
2023-04-23T05:25:28.586Z,8.99
2023-04-23T05:27:57.835Z,9.12
2023-04-23T05:30:28.829Z,9.25
2023-04-23T05:32:57.669Z,9.36
2023-04-23T05:35:26.635Z,9.53
2023-04-23T05:37:56.821Z,9.71
2023-04-23T05:40:25.764Z,9.92
2023-04-23T05:42:54.993Z,10.15
2023-04-23T05:45:23.857Z,10.36
2023-04-23T05:47:54.273Z,10.56
2023-04-23T05:50:24.065Z,10.72
2023-04-23T05:52:52.692Z,10.93
2023-04-23T05:55:22.020Z,11.11
2023-04-23T05:57:50.716Z,11.36
2023-04-23T06:00:19.425Z,11.58
2023-04-23T06:02:48.372Z,11.77
2023-04-23T06:05:19.247Z,12.00
2023-04-23T06:07:48.301Z,12.22
2023-04-23T06:10:17.285Z,12.48
2023-04-23T06:12:47.312Z,12.75
2023-04-23T06:15:15.865Z,13.02
2023-04-23T06:17:44.662Z,13.21
2023-04-23T06:20:13.450Z,13.38
2023-04-23T06:22:43.549Z,13.54
2023-04-23T06:25:12.389Z,13.70
2023-04-23T06:27:41.161Z,13.85
2023-04-23T06:30:17.822Z,14.02
2023-04-23T06:32:48.110Z,14.20
2023-04-23T06:35:16.746Z,14.41
2023-04-23T06:37:46.865Z,14.61
2023-04-23T06:40:16.236Z,14.82
2023-04-23T06:42:45.867Z,15.04
2023-04-23T06:45:20.311Z,15.28
2023-04-23T06:47:49.549Z,15.48
2023-04-23T06:50:18.560Z,15.66
2023-04-23T06:52:48.656Z,15.86
2023-04-23T06:55:17.599Z,16.06
2023-04-23T06:57:46.264Z,16.23
2023-04-23T07:00:18.547Z,16.43
2023-04-23T07:02:48.381Z,16.66
2023-04-23T07:05:18.299Z,16.83
2023-04-23T07:07:48.630Z,16.99
2023-04-23T07:10:18.169Z,17.16
2023-04-23T07:12:47.225Z,17.30
2023-04-23T07:15:16.232Z,17.46
2023-04-23T07:17:45.066Z,17.61
2023-04-23T07:20:13.745Z,17.83
2023-04-23T07:22:42.962Z,18.04
2023-04-23T07:25:13.396Z,18.22
2023-04-23T07:27:42.251Z,18.39
2023-04-23T07:30:11.793Z,18.63
2023-04-23T07:32:40.868Z,18.80
2023-04-23T07:35:10.619Z,18.91
2023-04-23T07:37:39.353Z,19.08
2023-04-23T07:40:09.702Z,19.20
2023-04-23T07:42:40.745Z,19.33
2023-04-23T07:45:10.468Z,19.52
2023-04-23T07:47:39.549Z,19.72
2023-04-23T07:50:10.473Z,19.92
2023-04-23T07:52:39.174Z,20.06
2023-04-23T07:55:08.713Z,20.24
2023-04-23T07:57:37.412Z,20.46
2023-04-23T08:00:09.653Z,20.59
2023-04-23T08:02:42.156Z,20.61
2023-04-23T08:05:11.814Z,20.60
2023-04-23T08:07:41.754Z,20.83
2023-04-23T08:10:11.019Z,21.14
2023-04-23T08:12:39.677Z,21.42
2023-04-23T08:15:11.007Z,21.44
2023-04-23T08:17:43.938Z,21.50
2023-04-23T08:20:13.092Z,21.73
2023-04-23T08:22:41.793Z,22.00
2023-04-23T08:25:11.244Z,22.17
2023-04-23T08:27:40.008Z,22.22
2023-04-23T08:30:11.096Z,22.47
2023-04-23T08:32:41.671Z,22.79
2023-04-23T08:35:10.869Z,23.04
2023-04-23T08:38:02.382Z,23.10
2023-04-23T08:40:33.132Z,22.94
2023-04-23T08:43:05.277Z,23.13
2023-04-23T08:45:41.645Z,23.37
2023-04-23T08:48:11.699Z,23.70
2023-04-23T08:50:43.344Z,24.00
2023-04-23T08:53:12.512Z,23.89
2023-04-23T08:55:41.907Z,23.65
2023-04-23T08:58:11.203Z,23.93
2023-04-23T09:00:42.341Z,24.10
2023-04-23T09:03:11.689Z,24.11
2023-04-23T09:05:41.270Z,24.33
2023-04-23T09:08:11.558Z,24.55
2023-04-23T09:10:42.573Z,24.82
2023-04-23T09:13:14.058Z,24.97
2023-04-23T09:15:44.641Z,25.07
2023-04-23T09:18:13.479Z,25.00
2023-04-23T09:20:45.496Z,25.20
2023-04-23T09:23:16.402Z,25.67
2023-04-23T09:25:44.907Z,25.73
2023-04-23T09:28:15.265Z,25.51
2023-04-23T09:30:47.253Z,25.76
2023-04-23T09:33:18.078Z,26.08
2023-04-23T09:35:48.262Z,25.99
2023-04-23T09:38:17.100Z,25.91
2023-04-23T09:40:45.747Z,25.94
2023-04-23T09:43:14.301Z,26.07
2023-04-23T09:45:51.177Z,26.09
2023-04-23T09:48:20.552Z,26.04
2023-04-23T09:50:49.605Z,25.91
2023-04-23T09:53:20.962Z,26.16
2023-04-23T09:55:49.465Z,26.46
2023-04-23T09:58:18.047Z,26.51
2023-04-23T10:00:47.406Z,26.63
2023-04-23T10:03:17.461Z,26.74
2023-04-23T10:06:00.202Z,26.60
2023-04-23T10:08:30.739Z,26.73
2023-04-23T10:11:10.139Z,26.85
2023-04-23T10:13:48.408Z,27.03
2023-04-23T10:16:23.265Z,27.09
2023-04-23T10:19:01.536Z,27.10
2023-04-23T10:21:46.303Z,27.45
2023-04-23T10:24:21.272Z,27.49
2023-04-23T10:26:51.465Z,26.93
2023-04-23T10:29:27.508Z,26.64
2023-04-23T10:31:57.653Z,27.01
2023-04-23T10:34:28.548Z,27.35
2023-04-23T10:36:59.397Z,27.38
2023-04-23T10:39:30.559Z,27.74
2023-04-23T10:42:01.067Z,27.92
2023-04-23T10:47:16.413Z,27.67
2023-04-23T10:49:47.315Z,27.76
2023-04-23T10:52:21.073Z,27.78
2023-04-23T10:54:58.157Z,28.17
2023-04-23T10:57:27.101Z,28.33
2023-04-23T10:59:59.257Z,28.57
2023-04-23T11:02:44.882Z,28.60
2023-04-23T11:05:15.867Z,28.62
2023-04-23T11:08:18.292Z,28.60
2023-04-23T11:10:56.353Z,28.65
2023-04-23T11:13:26.645Z,28.84
2023-04-23T11:16:25.470Z,28.71
2023-04-23T11:19:03.691Z,28.68
2023-04-23T11:22:01.377Z,28.56
2023-04-23T11:24:31.997Z,28.73
2023-04-23T11:27:01.474Z,28.83
2023-04-23T11:29:30.673Z,28.63
2023-04-23T11:32:02.487Z,28.62
2023-04-23T11:34:33.593Z,28.81
2023-04-23T11:37:05.164Z,28.85
2023-04-23T11:39:34.119Z,28.84
2023-04-23T11:42:03.524Z,28.96
2023-04-23T11:44:32.613Z,28.84
2023-04-23T11:47:02.754Z,28.68
2023-04-23T11:49:32.345Z,28.81
2023-04-23T11:52:02.601Z,28.78
2023-04-23T11:54:33.666Z,28.71
2023-04-23T11:57:04.819Z,28.58
2023-04-23T11:59:33.675Z,28.69
2023-04-23T12:02:03.505Z,28.83
2023-04-23T12:04:33.447Z,28.81
2023-04-23T12:07:10.194Z,29.00
2023-04-23T12:09:49.730Z,29.07
2023-04-23T12:12:18.324Z,29.16
2023-04-23T12:14:47.068Z,29.12
2023-04-23T12:17:16.197Z,29.20
2023-04-23T12:19:46.137Z,29.24
2023-04-23T12:22:14.595Z,29.27
2023-04-23T12:24:53.800Z,29.39
2023-04-23T12:27:24.457Z,29.27
2023-04-23T12:30:01.704Z,29.22
2023-04-23T12:32:31.330Z,29.07
2023-04-23T12:35:00.221Z,28.98
2023-04-23T12:37:32.096Z,28.84
2023-04-23T12:40:02.156Z,29.13
2023-04-23T12:42:30.655Z,29.17
2023-04-23T12:45:07.481Z,29.04
2023-04-23T12:47:36.688Z,28.82
2023-04-23T12:50:05.878Z,29.06
2023-04-23T12:52:41.579Z,28.70
2023-04-23T12:55:12.053Z,28.53
2023-04-23T12:57:40.756Z,28.62
2023-04-23T13:00:11.365Z,28.65
2023-04-23T13:02:40.634Z,28.76
2023-04-23T13:05:10.509Z,28.52
2023-04-23T13:07:39.122Z,28.43
2023-04-23T13:10:08.751Z,28.20
2023-04-23T13:12:39.026Z,28.23
2023-04-23T13:15:09.394Z,28.22
2023-04-23T13:17:38.299Z,28.28
2023-04-23T13:20:07.864Z,28.35
2023-04-23T13:22:36.410Z,28.21
2023-04-23T13:25:05.427Z,28.04
2023-04-23T13:27:33.991Z,27.81
2023-04-23T13:30:04.682Z,27.81
2023-04-23T13:32:33.556Z,28.00
2023-04-23T13:35:05.345Z,27.97
2023-04-23T13:37:34.234Z,27.91
2023-04-23T13:40:03.256Z,27.92
2023-04-23T13:42:32.464Z,27.92
2023-04-23T13:45:01.959Z,27.85
2023-04-23T13:47:33.462Z,27.74
2023-04-23T13:50:03.417Z,27.82
2023-04-23T13:52:32.145Z,27.81
2023-04-23T13:55:03.757Z,27.81
2023-04-23T13:57:32.268Z,27.58
2023-04-23T14:00:01.399Z,27.55
2023-04-23T14:02:34.487Z,27.29
2023-04-23T14:05:04.456Z,27.23
2023-04-23T14:07:33.299Z,27.16
2023-04-23T14:10:02.048Z,26.93
2023-04-23T14:12:30.640Z,26.46
2023-04-23T14:15:01.142Z,26.46
2023-04-23T14:17:29.715Z,26.60
2023-04-23T14:19:59.921Z,26.57
2023-04-23T14:22:29.201Z,26.56
2023-04-23T14:25:02.823Z,26.57
2023-04-23T14:27:34.053Z,26.55
2023-04-23T14:30:06.453Z,26.36
2023-04-23T14:32:35.402Z,26.12
2023-04-23T14:35:06.158Z,25.99
2023-04-23T14:37:35.065Z,25.94
2023-04-23T14:40:04.060Z,25.90
2023-04-23T14:42:33.189Z,25.82
2023-04-23T14:45:04.151Z,25.70
2023-04-23T14:47:32.642Z,25.49
2023-04-23T14:50:01.510Z,25.34
2023-04-23T14:52:31.838Z,25.23
2023-04-23T14:55:01.270Z,25.09
2023-04-23T14:57:29.908Z,25.07
2023-04-23T14:59:58.505Z,25.06
2023-04-23T15:02:27.247Z,24.97
2023-04-23T15:04:58.064Z,24.81
2023-04-23T15:07:27.120Z,24.63
2023-04-23T15:09:56.914Z,24.57
2023-04-23T15:12:50.747Z,24.57
2023-04-23T15:15:33.597Z,24.55
2023-04-23T15:18:09.696Z,24.48
2023-04-23T15:20:38.617Z,24.44
2023-04-23T15:23:07.666Z,24.43
2023-04-23T15:25:39.319Z,24.31
2023-04-23T15:28:08.099Z,24.18
2023-04-23T15:30:37.224Z,24.12
2023-04-23T15:33:05.819Z,24.08
2023-04-23T15:35:34.860Z,23.96
2023-04-23T15:38:04.052Z,23.91
2023-04-23T15:40:33.547Z,23.83
2023-04-23T15:43:03.615Z,23.74
2023-04-23T15:45:32.254Z,23.66
2023-04-23T15:48:00.776Z,23.57
2023-04-23T15:50:29.479Z,23.55
2023-04-23T15:52:59.509Z,23.56
2023-04-23T15:55:28.578Z,23.48
2023-04-23T15:57:59.124Z,23.41
2023-04-23T16:00:29.641Z,23.19
2023-04-23T16:03:01.348Z,22.98
2023-04-23T16:05:31.784Z,22.73
2023-04-23T16:08:00.906Z,22.57
2023-04-23T16:10:31.764Z,22.48
2023-04-23T16:13:00.525Z,22.44
2023-04-23T16:15:30.849Z,22.33
2023-04-23T16:18:00.466Z,22.27
2023-04-23T16:20:30.042Z,22.20
2023-04-23T16:22:58.430Z,22.07
2023-04-23T16:25:27.067Z,22.03
2023-04-23T16:27:57.848Z,21.96
2023-04-23T16:30:26.417Z,21.83
2023-04-23T16:32:56.543Z,21.64
2023-04-23T16:35:25.631Z,21.49
2023-04-23T16:37:55.086Z,21.37
2023-04-23T16:40:24.146Z,21.20
2023-04-23T16:42:52.923Z,21.06
2023-04-23T16:45:23.329Z,20.81
2023-04-23T16:47:52.458Z,20.61
2023-04-23T16:50:22.720Z,20.45
2023-04-23T16:52:51.488Z,20.23
2023-04-23T16:55:21.396Z,20.06
2023-04-23T16:57:50.517Z,19.89
2023-04-23T17:00:19.838Z,19.75
2023-04-23T17:02:49.456Z,19.60
2023-04-23T17:05:19.920Z,19.45
2023-04-23T17:07:51.547Z,19.31
2023-04-23T17:10:20.528Z,19.18
2023-04-23T17:12:50.652Z,19.05
2023-04-23T17:15:20.476Z,18.90
2023-04-23T17:17:49.203Z,18.73
2023-04-23T17:20:17.916Z,18.55
2023-04-23T17:22:46.568Z,18.38
2023-04-23T17:25:16.592Z,18.22
2023-04-23T17:27:45.603Z,18.01
2023-04-23T17:30:15.409Z,17.87
2023-04-23T17:32:44.481Z,17.71
2023-04-23T17:35:13.270Z,17.53
2023-04-23T17:37:42.125Z,17.36
2023-04-23T17:40:12.227Z,17.21
2023-04-23T17:42:42.082Z,17.09
2023-04-23T17:45:12.086Z,16.98
2023-04-23T17:47:41.213Z,16.88
2023-04-23T17:50:11.972Z,16.76
2023-04-23T17:52:41.427Z,16.64
2023-04-23T17:55:10.571Z,16.51
2023-04-23T17:57:39.484Z,16.38
2023-04-23T18:00:12.423Z,16.27
2023-04-23T18:02:42.029Z,16.16
2023-04-23T18:05:12.469Z,16.06
2023-04-23T18:07:42.669Z,15.98
2023-04-23T18:10:13.233Z,15.86
2023-04-23T18:12:42.175Z,15.76
2023-04-23T18:15:12.626Z,15.70
2023-04-23T18:17:41.827Z,15.58
2023-04-23T18:20:11.089Z,15.49
2023-04-23T18:22:41.772Z,15.42
2023-04-23T18:25:11.992Z,15.29
2023-04-23T18:27:41.040Z,15.23
2023-04-23T18:30:12.742Z,15.11
2023-04-23T18:32:48.970Z,15.03
2023-04-23T18:35:17.797Z,14.96
2023-04-23T18:37:50.393Z,14.85
2023-04-23T18:40:19.230Z,14.79
2023-04-23T18:42:47.985Z,14.72
2023-04-23T18:45:19.533Z,14.64
2023-04-23T18:47:52.784Z,14.55
2023-04-23T18:50:38.186Z,14.48
2023-04-23T18:53:07.287Z,14.43
2023-04-23T18:55:36.050Z,14.44
2023-04-23T18:58:05.237Z,14.41
2023-04-23T19:00:35.194Z,14.42
2023-04-23T19:03:12.057Z,14.36
2023-04-23T19:05:48.849Z,14.32
2023-04-23T19:08:17.593Z,14.25
2023-04-23T19:10:47.380Z,14.19
2023-04-23T19:13:16.907Z,14.16
2023-04-23T19:15:47.465Z,14.12
2023-04-23T19:18:16.193Z,14.03
2023-04-23T19:20:44.582Z,13.97
2023-04-23T19:23:13.810Z,13.94
2023-04-23T19:25:42.754Z,13.88
2023-04-23T19:28:11.809Z,13.84
2023-04-23T19:30:40.582Z,13.80
2023-04-23T19:33:10.962Z,13.73
2023-04-23T19:35:40.386Z,13.69
2023-04-23T19:38:09.105Z,13.66
2023-04-23T19:40:38.318Z,13.60
2023-04-23T19:43:07.459Z,13.59
2023-04-23T19:45:36.531Z,13.55
2023-04-23T19:48:08.037Z,13.51
2023-04-23T19:50:39.129Z,13.49
2023-04-23T19:53:08.804Z,13.47
2023-04-23T19:55:37.718Z,13.47
2023-04-23T19:58:06.756Z,13.45
2023-04-23T20:00:40.330Z,13.45
2023-04-23T20:03:10.419Z,13.43
2023-04-23T20:05:42.533Z,13.40
2023-04-23T20:08:15.801Z,13.41
2023-04-23T20:10:46.876Z,13.38
2023-04-23T20:13:15.437Z,13.38
2023-04-23T20:15:48.620Z,13.34
2023-04-23T20:18:19.599Z,13.33
2023-04-23T20:20:51.154Z,13.25
2023-04-23T20:23:20.362Z,13.20
2023-04-23T20:25:49.435Z,13.15
2023-04-23T20:28:18.128Z,13.13
2023-04-23T20:30:46.845Z,13.09
2023-04-23T20:33:16.392Z,13.07
2023-04-23T20:35:45.329Z,13.03
2023-04-23T20:38:19.437Z,13.05
2023-04-23T20:40:49.014Z,13.04
2023-04-23T20:43:17.921Z,13.07
2023-04-23T20:45:46.796Z,13.04
2023-04-23T20:48:15.637Z,13.03
2023-04-23T20:50:44.545Z,13.03
2023-04-23T20:53:14.821Z,13.02
2023-04-23T20:55:44.503Z,13.02
2023-04-23T20:58:14.032Z,13.03
2023-04-23T21:00:43.226Z,13.00
2023-04-23T21:03:12.206Z,12.95
2023-04-23T21:05:44.475Z,12.93
2023-04-23T21:08:16.080Z,12.94
2023-04-23T21:10:45.899Z,12.92
2023-04-23T21:13:15.116Z,12.89
2023-04-23T21:15:44.686Z,12.86
2023-04-23T21:18:13.623Z,12.85
2023-04-23T21:20:42.466Z,12.83
2023-04-23T21:23:11.453Z,12.79
2023-04-23T21:25:41.924Z,12.70
2023-04-23T21:28:11.606Z,12.62
2023-04-23T21:30:47.424Z,12.54
2023-04-23T21:33:17.001Z,12.44
2023-04-23T21:35:46.335Z,12.39
2023-04-23T21:38:15.732Z,12.38
2023-04-23T21:40:46.107Z,12.39
2023-04-23T21:43:16.428Z,12.35
2023-04-23T21:45:45.068Z,12.29
2023-04-23T21:48:15.351Z,12.24
2023-04-23T21:50:44.111Z,12.21
2023-04-23T21:53:13.320Z,12.21
2023-04-23T21:55:42.142Z,12.18
2023-04-23T21:58:17.258Z,12.17
2023-04-23T22:00:49.246Z,12.12
2023-04-23T22:03:33.658Z,12.08
2023-04-23T22:06:08.359Z,12.07
2023-04-23T22:08:38.390Z,12.04
2023-04-23T22:11:07.401Z,12.02
2023-04-23T22:13:37.640Z,12.02
2023-04-23T22:16:13.414Z,12.01
2023-04-23T22:18:46.420Z,12.01
2023-04-23T22:21:15.154Z,12.02
2023-04-23T22:23:43.615Z,12.05
2023-04-23T22:26:13.316Z,12.15
2023-04-23T22:28:44.434Z,12.21
2023-04-23T22:31:12.904Z,12.16
2023-04-23T22:33:41.437Z,12.06
2023-04-23T22:36:10.186Z,11.98
2023-04-23T22:38:38.891Z,11.92
2023-04-23T22:41:08.266Z,11.90
2023-04-23T22:43:36.856Z,11.96
2023-04-23T22:46:07.361Z,12.01
2023-04-23T22:48:37.868Z,12.14
2023-04-23T22:51:07.137Z,12.25
2023-04-23T22:53:35.559Z,12.23
2023-04-23T22:56:04.424Z,12.20
2023-04-23T22:58:33.156Z,12.19
2023-04-23T23:01:01.937Z,12.15
2023-04-23T23:03:32.172Z,12.11
2023-04-23T23:06:01.136Z,12.08
2023-04-23T23:08:29.768Z,12.07
2023-04-23T23:10:58.646Z,12.13
2023-04-23T23:13:27.494Z,12.10
2023-04-23T23:16:00.692Z,12.09
2023-04-23T23:18:31.633Z,12.10
2023-04-23T23:21:00.680Z,12.15
2023-04-23T23:23:29.782Z,12.17
2023-04-23T23:26:00.059Z,12.19
2023-04-23T23:28:29.216Z,12.20
2023-04-23T23:30:59.018Z,12.25
2023-04-23T23:33:27.693Z,12.22
2023-04-23T23:35:58.793Z,12.19
2023-04-23T23:38:28.183Z,12.15
2023-04-23T23:40:57.625Z,12.10
2023-04-23T23:43:27.565Z,12.03
2023-04-23T23:45:56.664Z,11.98
2023-04-23T23:48:25.786Z,11.89
2023-04-23T23:50:55.080Z,11.78
2023-04-23T23:53:25.001Z,11.63
2023-04-23T23:55:53.787Z,11.56
2023-04-23T23:58:22.316Z,11.47
